createdAt,value
2022-10-11T00:01:17.726Z,102522.41
2022-10-11T00:03:44.167Z,102522.19
2022-10-11T00:06:10.619Z,102522.47
2022-10-11T00:08:37.154Z,102517.94
2022-10-11T00:11:06.967Z,102521.44
2022-10-11T00:13:34.106Z,102522.53
2022-10-11T00:16:00.920Z,102513.34
2022-10-11T00:18:27.521Z,102519.31
2022-10-11T00:21:02.420Z,102530.13
2022-10-11T00:23:29.081Z,102525.28
2022-10-11T00:26:03.828Z,102533.38
2022-10-11T00:28:33.598Z,102537.16
2022-10-11T00:31:00.100Z,102532.84
2022-10-11T00:33:26.650Z,102538.78
2022-10-11T00:35:53.194Z,102537.72
2022-10-11T00:38:20.057Z,102539.63
2022-10-11T00:40:46.590Z,102544.97
2022-10-11T00:43:25.045Z,102545.81
2022-10-11T00:45:57.638Z,102543.94
2022-10-11T00:48:32.562Z,102543.66
2022-10-11T00:51:03.690Z,102549.59
2022-10-11T00:53:33.007Z,102553.13
2022-10-11T00:56:08.748Z,102551.78
2022-10-11T00:58:37.037Z,102548.81
2022-10-11T01:01:04.066Z,102569.03
2022-10-11T01:03:32.831Z,102561.53
2022-10-11T01:05:59.270Z,102566.34
2022-10-11T01:08:26.899Z,102577.97
2022-10-11T01:10:53.589Z,102573.13
2022-10-11T01:13:34.745Z,102573.13
2022-10-11T01:16:13.726Z,102573.13
2022-10-11T01:18:52.166Z,102577.97
2022-10-11T01:21:27.429Z,102582.84
2022-10-11T01:24:15.274Z,102575.28
2022-10-11T01:27:19.066Z,102580.94
2022-10-11T01:29:57.698Z,102580.44
2022-10-11T01:32:59.349Z,102570.75
2022-10-11T01:35:45.320Z,102572.09
2022-10-11T01:38:17.247Z,102573.94
2022-10-11T01:41:23.616Z,102571.00
2022-10-11T01:43:55.648Z,102574.22
2022-10-11T01:46:23.791Z,102583.94
2022-10-11T01:48:52.615Z,102585.53
2022-10-11T01:51:25.730Z,102579.66
2022-10-11T01:54:01.455Z,102577.75
2022-10-11T01:56:52.325Z,102578.81
2022-10-11T01:59:30.926Z,102576.41
2022-10-11T02:02:29.393Z,102581.22
2022-10-11T02:05:26.222Z,102582.03
2022-10-11T02:08:05.436Z,102592.00
2022-10-11T02:10:41.742Z,102586.13
2022-10-11T02:13:18.500Z,102591.53
2022-10-11T02:15:47.606Z,102591.25
2022-10-11T02:18:20.199Z,102593.66
2022-10-11T02:20:48.916Z,102599.34
2022-10-11T02:23:23.315Z,102595.31
2022-10-11T02:25:52.407Z,102586.69
2022-10-11T02:28:23.536Z,102594.25
2022-10-11T02:30:52.363Z,102595.28
2022-10-11T02:33:25.044Z,102598.00
2022-10-11T02:35:59.573Z,102598.00
2022-10-11T02:38:30.753Z,102596.91
2022-10-11T02:41:05.693Z,102597.19
2022-10-11T02:43:57.611Z,102604.47
2022-10-11T02:46:25.310Z,102610.63
2022-10-11T02:48:52.685Z,102603.13
2022-10-11T02:51:19.134Z,102599.56
2022-10-11T02:53:45.690Z,102609.81
2022-10-11T02:56:12.094Z,102611.44
2022-10-11T02:58:38.559Z,102606.56
2022-10-11T03:01:05.728Z,102609.81
2022-10-11T03:03:32.146Z,102611.44
2022-10-11T03:06:02.856Z,102609.81
2022-10-11T03:08:29.634Z,102609.81
2022-10-11T03:10:56.099Z,102604.97
2022-10-11T03:13:22.783Z,102610.91
2022-10-11T03:16:02.245Z,102610.09
2022-10-11T03:18:29.772Z,102614.38
2022-10-11T03:20:56.183Z,102614.94
2022-10-11T03:23:22.634Z,102609.00
2022-10-11T03:25:49.262Z,102611.97
2022-10-11T03:28:15.799Z,102617.88
2022-10-11T03:30:42.238Z,102612.22
2022-10-11T03:33:08.644Z,102601.75
2022-10-11T03:35:35.131Z,102607.41
2022-10-11T03:38:01.585Z,102619.25
2022-10-11T03:40:28.097Z,102621.91
2022-10-11T03:42:56.368Z,102618.69
2022-10-11T03:45:22.854Z,102623.28
2022-10-11T03:47:49.925Z,102625.97
2022-10-11T03:50:16.553Z,102631.09
2022-10-11T03:52:43.063Z,102628.41
2022-10-11T03:55:09.508Z,102628.69
2022-10-11T03:57:35.994Z,102629.75
2022-10-11T04:00:02.421Z,102645.91
2022-10-11T04:02:28.904Z,102634.59
2022-10-11T04:04:55.304Z,102642.13
2022-10-11T04:07:21.769Z,102641.03
2022-10-11T04:09:48.597Z,102638.63
2022-10-11T04:12:15.021Z,102635.38
2022-10-11T04:14:41.481Z,102646.44
2022-10-11T04:17:07.935Z,102645.06
2022-10-11T04:19:36.726Z,102654.50
2022-10-11T04:22:04.523Z,102659.31
2022-10-11T04:24:31.082Z,102662.84
2022-10-11T04:26:57.849Z,102659.31
2022-10-11T04:29:27.636Z,102665.22
2022-10-11T04:31:56.518Z,102660.91
2022-10-11T04:34:23.036Z,102663.59
2022-10-11T04:36:50.109Z,102663.31
2022-10-11T04:39:16.735Z,102661.72
2022-10-11T04:41:43.263Z,102667.13
2022-10-11T04:44:09.705Z,102659.81
2022-10-11T04:46:36.146Z,102663.63
2022-10-11T04:49:02.623Z,102674.91
2022-10-11T04:51:29.313Z,102666.81
2022-10-11T04:53:55.819Z,102675.16
2022-10-11T04:56:22.563Z,102674.38
2022-10-11T04:58:49.513Z,102677.88
2022-10-11T05:01:16.035Z,102678.41
2022-10-11T05:03:43.344Z,102678.41
2022-10-11T05:06:10.741Z,102679.47
2022-10-11T05:08:37.670Z,102683.50
2022-10-11T05:11:06.959Z,102681.34
2022-10-11T05:13:34.474Z,102684.81
2022-10-11T05:16:01.989Z,102679.19
2022-10-11T05:18:30.413Z,102691.03
2022-10-11T05:21:09.064Z,102684.03
2022-10-11T05:23:36.669Z,102678.91
2022-10-11T05:26:04.407Z,102687.75
2022-10-11T05:28:31.251Z,102683.72
2022-10-11T05:30:58.149Z,102689.41
2022-10-11T05:33:25.308Z,102694.00
2022-10-11T05:35:51.989Z,102696.94
2022-10-11T05:38:18.597Z,102691.28
2022-10-11T05:40:45.293Z,102694.50
2022-10-11T05:43:11.845Z,102694.25
2022-10-11T05:45:40.005Z,102687.25
2022-10-11T05:48:06.489Z,102688.84
2022-10-11T05:50:33.405Z,102701.00
2022-10-11T05:52:59.958Z,102705.56
2022-10-11T05:55:26.387Z,102706.41
2022-10-11T05:57:54.608Z,102704.22
2022-10-11T06:00:22.336Z,102709.09
2022-10-11T06:02:48.793Z,102717.69
2022-10-11T06:05:15.465Z,102723.34
2022-10-11T06:07:42.122Z,102710.97
2022-10-11T06:10:09.491Z,102710.69
2022-10-11T06:12:36.137Z,102713.66
2022-10-11T06:15:03.930Z,102722.78
2022-10-11T06:17:30.486Z,102723.34
2022-10-11T06:19:56.910Z,102720.13
2022-10-11T06:22:23.549Z,102731.44
2022-10-11T06:24:50.063Z,102722.03
2022-10-11T06:27:16.596Z,102720.97
2022-10-11T06:29:43.046Z,102723.16
2022-10-11T06:32:09.473Z,102729.34
2022-10-11T06:34:36.065Z,102728.84
2022-10-11T06:37:02.607Z,102737.72
2022-10-11T06:39:29.164Z,102739.34
2022-10-11T06:41:55.663Z,102736.69
2022-10-11T06:44:22.133Z,102742.91
2022-10-11T06:46:48.585Z,102748.84
2022-10-11T06:49:18.201Z,102755.03
2022-10-11T06:51:47.246Z,102752.63
2022-10-11T06:54:13.814Z,102750.75
2022-10-11T06:56:40.878Z,102750.75
2022-10-11T06:59:07.587Z,102766.63
2022-10-11T07:01:34.165Z,102759.63
2022-10-11T07:04:01.607Z,102765.56
2022-10-11T07:06:30.710Z,102759.09
2022-10-11T07:09:00.044Z,102764.53
2022-10-11T07:11:28.054Z,102763.44
2022-10-11T07:14:00.313Z,102774.75
2022-10-11T07:16:27.560Z,102776.09
2022-10-11T07:19:00.238Z,102779.34
2022-10-11T07:21:28.645Z,102772.28
2022-10-11T07:23:55.121Z,102768.50
2022-10-11T07:26:21.563Z,102768.22
2022-10-11T07:28:48.064Z,102781.16
2022-10-11T07:31:20.607Z,102780.59
2022-10-11T07:33:47.425Z,102781.13
2022-10-11T07:36:15.615Z,102786.53
2022-10-11T07:38:43.980Z,102780.56
2022-10-11T07:41:10.678Z,102786.16
2022-10-11T07:43:38.139Z,102789.91
2022-10-11T07:46:05.568Z,102790.97
2022-10-11T07:48:34.297Z,102795.19
2022-10-11T07:51:16.012Z,102793.50
2022-10-11T07:53:48.490Z,102800.16
2022-10-11T07:56:18.894Z,102805.50
2022-10-11T07:58:53.844Z,102807.38
2022-10-11T08:01:20.698Z,102800.53
2022-10-11T08:03:48.001Z,102803.69
2022-10-11T08:06:17.350Z,102803.56
2022-10-11T08:08:44.024Z,102800.94
2022-10-11T08:11:10.978Z,102797.81
2022-10-11T08:13:37.601Z,102804.50
2022-10-11T08:16:11.152Z,102815.47
2022-10-11T08:18:37.633Z,102812.03
2022-10-11T08:21:09.108Z,102811.59
2022-10-11T08:23:35.744Z,102819.41
2022-10-11T08:26:02.877Z,102820.03
2022-10-11T08:28:29.715Z,102814.59
2022-10-11T08:30:56.732Z,102816.22
2022-10-11T08:33:24.594Z,102819.91
2022-10-11T08:35:52.296Z,102819.31
2022-10-11T08:38:19.655Z,102820.78
2022-10-11T08:40:52.082Z,102829.44
2022-10-11T08:43:44.571Z,102833.25
2022-10-11T08:46:13.181Z,102829.56
2022-10-11T08:48:45.665Z,102836.44
2022-10-11T08:51:30.668Z,102832.75
2022-10-11T08:54:04.674Z,102832.38
2022-10-11T08:56:37.707Z,102839.03
2022-10-11T08:59:32.877Z,102833.81
2022-10-11T09:02:49.563Z,102832.19
2022-10-11T09:05:23.736Z,102838.66
2022-10-11T09:08:13.540Z,102834.22
2022-10-11T09:11:04.816Z,102840.38
2022-10-11T09:13:58.788Z,102838.06
2022-10-11T09:16:36.730Z,102839.59
2022-10-11T09:19:06.034Z,102831.94
2022-10-11T09:21:39.837Z,102836.25
2022-10-11T09:24:45.621Z,102835.38
2022-10-11T09:27:50.338Z,102837.72
2022-10-11T09:30:19.803Z,102847.66
2022-10-11T09:33:04.518Z,102842.94
2022-10-11T09:35:38.705Z,102842.56
2022-10-11T09:38:13.357Z,102842.13
2022-10-11T09:41:11.676Z,102845.47
2022-10-11T09:43:38.472Z,102846.94
2022-10-11T09:46:20.565Z,102850.09
2022-10-11T09:48:47.356Z,102846.38
2022-10-11T09:51:19.861Z,102845.16
2022-10-11T09:53:49.333Z,102837.41
2022-10-11T09:56:15.912Z,102846.75
2022-10-11T09:58:42.453Z,102838.66
2022-10-11T10:01:11.766Z,102851.03
2022-10-11T10:03:43.155Z,102845.16
2022-10-11T10:06:15.699Z,102845.56
2022-10-11T10:08:43.237Z,102841.91
2022-10-11T10:11:11.196Z,102844.50
2022-10-11T10:13:51.814Z,102841.06
2022-10-11T10:16:30.769Z,102832.75
2022-10-11T10:19:19.424Z,102838.06
2022-10-11T10:21:49.315Z,102833.50
2022-10-11T10:24:28.798Z,102837.50
2022-10-11T10:27:21.498Z,102834.66
2022-10-11T10:30:08.854Z,102826.84
2022-10-11T10:32:55.639Z,102832.97
2022-10-11T10:35:55.362Z,102836.25
2022-10-11T10:38:36.410Z,102836.41
2022-10-11T10:41:14.589Z,102833.38
2022-10-11T10:43:43.437Z,102828.59
2022-10-11T10:46:16.672Z,102835.53
2022-10-11T10:51:53.932Z,102826.91
2022-10-11T10:54:23.248Z,102825.47
2022-10-11T10:56:57.764Z,102829.19
2022-10-11T10:59:49.341Z,102814.13
2022-10-11T11:02:40.192Z,102820.41
2022-10-11T11:05:22.201Z,102822.84
2022-10-11T11:08:12.763Z,102815.78
2022-10-11T11:10:49.082Z,102811.34
2022-10-11T11:13:23.081Z,102817.75
2022-10-11T11:15:55.666Z,102813.91
2022-10-11T11:18:59.001Z,102812.63
2022-10-11T11:22:06.188Z,102811.03
2022-10-11T11:24:46.790Z,102795.94
2022-10-11T11:27:25.344Z,102800.94
2022-10-11T11:29:56.245Z,102799.97
2022-10-11T11:32:45.584Z,102801.28
2022-10-11T11:35:27.234Z,102797.88
2022-10-11T11:38:06.085Z,102790.34
2022-10-11T11:40:49.098Z,102784.56
2022-10-11T11:43:23.560Z,102791.16
2022-10-11T11:45:55.807Z,102794.50
2022-10-11T11:48:25.078Z,102785.19
2022-10-11T11:51:02.766Z,102781.19
2022-10-11T11:53:50.970Z,102782.44
2022-10-11T11:56:27.693Z,102785.69
2022-10-11T11:59:18.068Z,102778.94
2022-10-11T12:01:59.737Z,102776.84
2022-10-11T12:04:36.129Z,102779.09
2022-10-11T12:07:17.669Z,102770.25
2022-10-11T12:09:50.570Z,102768.47
2022-10-11T12:12:26.326Z,102770.84
2022-10-11T12:15:22.280Z,102766.53
2022-10-11T12:17:54.811Z,102764.59
2022-10-11T12:20:25.679Z,102767.16
2022-10-11T12:22:55.009Z,102762.66
2022-10-11T12:25:28.481Z,102754.94
2022-10-11T12:27:57.519Z,102760.88
2022-10-11T12:30:42.662Z,102757.63
2022-10-11T12:33:46.890Z,102756.34
2022-10-11T12:36:34.043Z,102747.94
2022-10-11T12:39:18.577Z,102741.00
2022-10-11T12:42:17.733Z,102738.44
2022-10-11T12:45:13.337Z,102738.63
2022-10-11T12:48:01.474Z,102733.34
2022-10-11T12:50:51.808Z,102732.03
2022-10-11T12:53:43.081Z,102740.91
2022-10-11T12:56:18.391Z,102739.66
2022-10-11T12:58:47.866Z,102737.50
2022-10-11T13:01:22.031Z,102739.06
2022-10-11T13:04:00.218Z,102736.41
2022-10-11T13:06:28.855Z,102735.47
2022-10-11T13:09:10.053Z,102737.72
2022-10-11T13:11:44.849Z,102731.63
2022-10-11T13:14:17.495Z,102739.63
2022-10-11T13:17:08.253Z,102728.69
2022-10-11T13:19:37.838Z,102730.63
2022-10-11T13:22:15.260Z,102735.91
2022-10-11T13:24:42.611Z,102730.91
2022-10-11T13:27:18.709Z,102731.72
2022-10-11T13:29:46.440Z,102733.31
2022-10-11T13:32:16.758Z,102729.78
2022-10-11T13:34:47.398Z,102736.16
2022-10-11T13:37:20.469Z,102735.81
2022-10-11T13:39:49.041Z,102729.22
2022-10-11T13:42:17.734Z,102717.00
2022-10-11T13:44:45.962Z,102718.28
2022-10-11T13:47:18.305Z,102717.81
2022-10-11T13:49:47.606Z,102721.81
2022-10-11T13:52:23.742Z,102718.13
2022-10-11T13:54:53.234Z,102719.78
2022-10-11T13:57:22.724Z,102710.28
2022-10-11T13:59:49.482Z,102706.56
2022-10-11T14:02:22.384Z,102718.78
2022-10-11T14:04:49.839Z,102705.63
2022-10-11T14:07:29.822Z,102708.41
2022-10-11T14:09:56.552Z,102708.41
2022-10-11T14:12:25.774Z,102696.06
2022-10-11T14:14:52.521Z,102707.31
2022-10-11T14:17:40.444Z,102701.00
2022-10-11T14:20:40.122Z,102696.44
2022-10-11T14:23:06.812Z,102710.53
2022-10-11T14:25:33.898Z,102696.09
2022-10-11T14:28:00.588Z,102695.00
2022-10-11T14:30:28.170Z,102689.19
2022-10-11T14:32:57.650Z,102700.16
2022-10-11T14:35:27.158Z,102693.66
2022-10-11T14:37:53.916Z,102684.41
2022-10-11T14:40:24.133Z,102691.97
2022-10-11T14:42:50.891Z,102682.47
2022-10-11T14:45:18.545Z,102689.00
2022-10-11T14:47:45.294Z,102688.97
2022-10-11T14:50:44.701Z,102691.13
2022-10-11T14:53:11.895Z,102683.91
2022-10-11T14:55:41.052Z,102688.59
2022-10-11T14:58:09.416Z,102685.75
2022-10-11T15:00:36.315Z,102689.59
2022-10-11T15:03:03.826Z,102690.63
2022-10-11T15:05:34.313Z,102683.66
2022-10-11T15:08:02.354Z,102678.97
2022-10-11T15:10:35.727Z,102687.63
2022-10-11T15:13:02.719Z,102675.97
2022-10-11T15:15:32.650Z,102678.78
2022-10-11T15:18:00.350Z,102675.66
2022-10-11T15:20:31.444Z,102677.56
2022-10-11T15:22:59.366Z,102674.56
2022-10-11T15:25:27.221Z,102677.75
2022-10-11T15:27:53.790Z,102675.53
2022-10-11T15:30:46.677Z,102675.53
2022-10-11T15:33:13.145Z,102672.94
2022-10-11T15:35:39.652Z,102674.75
2022-10-11T15:38:09.029Z,102669.72
2022-10-11T15:40:36.937Z,102669.97
2022-10-11T15:43:04.257Z,102673.69
2022-10-11T15:45:31.158Z,102670.03
2022-10-11T15:47:58.363Z,102661.72
2022-10-11T15:50:41.425Z,102664.75
2022-10-11T15:53:16.847Z,102658.47
2022-10-11T15:55:45.948Z,102662.25
2022-10-11T15:58:15.363Z,102656.16
2022-10-11T16:00:43.458Z,102657.50
2022-10-11T16:03:12.455Z,102653.50
2022-10-11T16:05:39.455Z,102647.09
2022-10-11T16:08:06.215Z,102648.53
2022-10-11T16:10:32.848Z,102652.66
2022-10-11T16:12:59.338Z,102653.09
2022-10-11T16:15:26.328Z,102645.22
2022-10-11T16:17:52.786Z,102650.47
2022-10-11T16:20:22.319Z,102657.16
2022-10-11T16:22:50.694Z,102650.78
2022-10-11T16:25:17.797Z,102656.38
2022-10-11T16:27:44.782Z,102666.47
2022-10-11T16:30:12.822Z,102670.81
2022-10-11T16:32:40.017Z,102661.72
2022-10-11T16:35:07.814Z,102661.28
2022-10-11T16:37:35.066Z,102661.00
2022-10-11T16:40:01.554Z,102663.94
2022-10-11T16:42:28.207Z,102670.41
2022-10-11T16:44:54.606Z,102664.69
2022-10-11T16:47:21.053Z,102678.03
2022-10-11T16:49:47.451Z,102665.91
2022-10-11T16:52:15.446Z,102679.59
2022-10-11T16:54:46.568Z,102673.50
2022-10-11T16:57:15.666Z,102675.44
2022-10-11T16:59:42.520Z,102670.78
2022-10-11T17:02:16.061Z,102670.94
2022-10-11T17:04:42.549Z,102669.34
2022-10-11T17:07:14.892Z,102669.03
2022-10-11T17:09:44.307Z,102681.69
2022-10-11T17:12:13.212Z,102674.63
2022-10-11T17:14:41.276Z,102679.41
2022-10-11T17:17:09.487Z,102678.78
2022-10-11T17:19:39.217Z,102676.06
2022-10-11T17:22:10.107Z,102676.66
2022-10-11T17:24:36.680Z,102669.13
2022-10-11T17:27:03.939Z,102686.09
2022-10-11T17:29:30.446Z,102686.16
2022-10-11T17:31:56.978Z,102677.00
2022-10-11T17:34:23.872Z,102690.22
2022-10-11T17:36:50.425Z,102688.25
2022-10-11T17:39:19.405Z,102687.50
2022-10-11T17:41:46.139Z,102696.00
2022-10-11T17:44:13.886Z,102682.38
2022-10-11T17:46:40.322Z,102683.00
2022-10-11T17:49:08.506Z,102688.88
2022-10-11T17:51:36.521Z,102680.88
2022-10-11T17:54:03.964Z,102681.63
2022-10-11T17:56:36.600Z,102682.22
2022-10-11T17:59:04.287Z,102681.03
2022-10-11T18:01:30.823Z,102683.59
2022-10-11T18:04:03.106Z,102678.25
2022-10-11T18:06:33.058Z,102676.53
2022-10-11T18:09:01.026Z,102681.66
2022-10-11T18:11:27.558Z,102680.06
2022-10-11T18:13:54.158Z,102680.38
2022-10-11T18:16:24.479Z,102683.41
2022-10-11T18:18:51.004Z,102677.97
2022-10-11T18:21:18.731Z,102685.59
2022-10-11T18:23:45.743Z,102683.53
2022-10-11T18:26:18.195Z,102679.50
2022-10-11T18:28:45.386Z,102680.91
2022-10-11T18:31:18.237Z,102677.44
2022-10-11T18:33:46.015Z,102675.53
2022-10-11T18:36:15.188Z,102686.56
2022-10-11T18:38:46.162Z,102678.19
2022-10-11T18:41:15.102Z,102679.09
2022-10-11T18:43:41.821Z,102683.53
2022-10-11T18:46:11.660Z,102686.56
2022-10-11T18:48:42.753Z,102674.50
2022-10-11T18:51:19.985Z,102684.88
2022-10-11T18:53:47.260Z,102672.81
2022-10-11T18:56:16.929Z,102678.78
2022-10-11T18:58:44.870Z,102669.19
2022-10-11T19:01:16.335Z,102677.66
2022-10-11T19:03:44.321Z,102672.53
2022-10-11T19:06:17.743Z,102674.25
2022-10-11T19:08:46.019Z,102672.31
2022-10-11T19:11:14.035Z,102667.75
2022-10-11T19:13:40.599Z,102673.91
2022-10-11T19:16:10.207Z,102669.88
2022-10-11T19:18:41.730Z,102668.41
2022-10-11T19:21:12.605Z,102669.69
2022-10-11T19:23:41.855Z,102671.19
2022-10-11T19:26:13.511Z,102666.97
2022-10-11T19:28:40.120Z,102670.81
2022-10-11T19:31:09.921Z,102665.75
2022-10-11T19:33:36.614Z,102667.97
2022-10-11T19:36:05.168Z,102664.75
2022-10-11T19:38:33.820Z,102663.78
2022-10-11T19:41:01.638Z,102658.63
2022-10-11T19:43:28.415Z,102666.56
2022-10-11T19:46:01.688Z,102664.13
2022-10-11T19:48:28.465Z,102672.78
2022-10-11T19:51:06.673Z,102665.03
2022-10-11T19:53:33.210Z,102660.19
2022-10-11T19:56:02.133Z,102660.19
2022-10-11T19:58:29.177Z,102659.28
2022-10-11T20:01:19.667Z,102659.00
2022-10-11T20:04:22.684Z,102662.59
2022-10-11T20:06:57.425Z,102655.06
2022-10-11T20:09:29.602Z,102659.97
2022-10-11T20:11:56.836Z,102652.41
2022-10-11T20:14:23.346Z,102661.59
2022-10-11T20:16:50.536Z,102658.78
2022-10-11T20:19:17.207Z,102655.88
2022-10-11T20:21:43.955Z,102654.97
2022-10-11T20:24:10.429Z,102662.25
2022-10-11T20:26:37.021Z,102657.72
2022-10-11T20:29:03.501Z,102662.66
2022-10-11T20:31:33.092Z,102665.13
2022-10-11T20:34:02.396Z,102659.66
2022-10-11T20:36:30.172Z,102665.38
2022-10-11T20:38:58.231Z,102658.84
2022-10-11T20:41:34.234Z,102666.47
2022-10-11T20:44:02.195Z,102664.03
2022-10-11T20:46:31.567Z,102660.94
2022-10-11T20:49:03.417Z,102664.97
2022-10-11T20:51:31.665Z,102665.06
2022-10-11T20:53:58.913Z,102667.69
2022-10-11T20:56:26.680Z,102667.78
2022-10-11T20:58:55.217Z,102660.31
2022-10-11T21:01:28.062Z,102665.28
2022-10-11T21:03:57.490Z,102671.16
2022-10-11T21:06:24.051Z,102661.31
2022-10-11T21:08:50.499Z,102660.50
2022-10-11T21:11:17.020Z,102665.88
2022-10-11T21:13:43.543Z,102663.47
2022-10-11T21:16:14.638Z,102670.34
2022-10-11T21:18:41.665Z,102664.59
2022-10-11T21:21:13.827Z,102663.97
2022-10-11T21:23:41.011Z,102659.72
2022-10-11T21:26:10.682Z,102657.63
2022-10-11T21:28:37.911Z,102664.50
2022-10-11T21:31:13.042Z,102668.88
2022-10-11T21:33:40.420Z,102665.00
2022-10-11T21:36:12.191Z,102665.84
2022-10-11T21:38:39.146Z,102663.44
2022-10-11T21:41:11.509Z,102658.97
2022-10-11T21:43:38.432Z,102672.00
2022-10-11T21:46:10.931Z,102667.91
2022-10-11T21:48:37.445Z,102675.75
2022-10-11T21:51:04.498Z,102664.03
2022-10-11T21:53:31.135Z,102663.50
2022-10-11T21:55:58.687Z,102668.34
2022-10-11T21:58:25.600Z,102673.16
2022-10-11T22:00:52.568Z,102669.94
2022-10-11T22:03:19.470Z,102671.09
2022-10-11T22:05:47.288Z,102668.59
2022-10-11T22:08:14.395Z,102666.22
2022-10-11T22:10:45.699Z,102669.78
2022-10-11T22:13:12.240Z,102677.34
2022-10-11T22:15:39.431Z,102664.38
2022-10-11T22:18:06.198Z,102664.38
2022-10-11T22:20:33.399Z,102668.75
2022-10-11T22:23:00.049Z,102657.16
2022-10-11T22:25:26.626Z,102663.38
2022-10-11T22:27:53.045Z,102655.53
2022-10-11T22:30:19.513Z,102652.47
2022-10-11T22:32:45.946Z,102661.56
2022-10-11T22:35:12.378Z,102659.66
2022-10-11T22:37:38.771Z,102652.09
2022-10-11T22:40:05.911Z,102653.03
2022-10-11T22:42:32.311Z,102651.94
2022-10-11T22:44:58.733Z,102655.19
2022-10-11T22:47:25.615Z,102658.44
2022-10-11T22:49:52.037Z,102660.34
2022-10-11T22:52:18.449Z,102661.09
2022-10-11T22:54:44.865Z,102654.25
2022-10-11T22:57:11.457Z,102657.97
2022-10-11T22:59:37.898Z,102655.78
2022-10-11T23:02:04.301Z,102663.09
2022-10-11T23:04:30.749Z,102654.63
2022-10-11T23:07:01.198Z,102649.53
2022-10-11T23:09:31.645Z,102658.66
2022-10-11T23:11:59.073Z,102652.09
2022-10-11T23:14:25.602Z,102656.56
2022-10-11T23:16:52.362Z,102654.44
2022-10-11T23:19:18.937Z,102649.59
2022-10-11T23:21:45.737Z,102642.06
2022-10-11T23:24:12.249Z,102641.78
2022-10-11T23:26:38.710Z,102642.28
2022-10-11T23:29:05.176Z,102635.34
2022-10-11T23:31:31.605Z,102626.72
2022-10-11T23:33:58.028Z,102620.50
2022-10-11T23:36:25.754Z,102626.47
2022-10-11T23:38:54.266Z,102625.03
2022-10-11T23:41:21.813Z,102622.16
2022-10-11T23:43:48.221Z,102625.91
2022-10-11T23:46:15.037Z,102620.25
2022-10-11T23:48:41.645Z,102627.88
2022-10-11T23:51:08.223Z,102625.28
2022-10-11T23:53:35.744Z,102625.69
2022-10-11T23:56:02.773Z,102633.41
2022-10-11T23:58:29.211Z,102629.78
